Aérodrome :
LOGIN :

S'inscrire | Disclaimer

   EN    FR    IT 

 










Légende :    VFR   VFR Marginal   IFR   IFR Intensif   IFR Très Intensif
Visi : 
Plafond : 
>= 8 km
>= 3000ft
5 à 8 km
1000 à 3000 ft
1500m à 5 km
500 à 1000 ft
800 à 1500m
200 à 500 ft
< 800m
< 200 ft
Symboles :   Orages  Brouillard  Fortes neiges  Fortes précipitations  Vent > 20 kt
SIGMETs :   Divers  Orages  Givrage  Turbulence  Onde Orograph.  Cendres Volcan.







- Altitude de l'aérodrome : 3368 ft


LSGC - Les Eplatures

METARs EXPIRÉS :
  • 241420Z AUTO 26007KT 190V300 9999 NCD 22/14 Q1021
  • 241350Z 26008KT 200V300 9999 SCT032 22/14 Q1021
  • 241320Z AUTO 27010KT 180V310 9999 BKN029 21/13 Q1021
  • 241250Z 25009KT 210V300 9999 BKN027 21/14 Q1022
  • 241220Z 23007KT 180V260 9999 BKN018 19/14 Q1022
  • 241150Z 24004KT 190V300 9999 BKN012 18/15 Q1022

Prévision TAF périmée.
Pas de NOTAMs connus pour ce terrain.



MET'MAP, la Météo Aéronautique d'un coup d'oeil ! - Copyright ORBIFLY Décembre 2007 - Disclaimer

ORBIFLY MET'MAP TEAM :

Programmation & Développement : Alexandra Zaïnal
Conception & Développement : Baudouin d'Aumeries
Co-Programmation & Développement : Marc-Olivier Méhu
Soutien technique & logistique : Manuel Goepfert

Contact : metmap@orbifly.com




SOURCES & CREDITS :

   NOAA